Time;durP1;ratioP1;P1;durP2;ratioP2;P2;SDS_P1;SDS_P2;PMS_P1;PMS_P2;Temp;Humidity;BMP_temperature;BMP_pressure;BME280_temperature;BME280_humidity;BME280_pressure;Samples;Min_cycle;Max_cycle;Signal;HPM_P1;HPM_P2
2024/02/21 00:00:19;;;;;;;0.00;0.00;;;22.10;42.60;;;;;;5010787;28;20221;-41
2024/02/21 00:02:50;;;;;;;0.00;0.00;;;22.10;42.50;;;;;;5014262;28;20205;-40
2024/02/21 00:05:20;;;;;;;0.00;0.00;;;22.20;42.50;;;;;;5014076;28;20232;-42
2024/02/21 00:07:51;;;;;;;0.00;0.00;;;22.20;42.60;;;;;;5013400;28;20203;-41
2024/02/21 00:10:24;;;;;;;0.00;0.00;;;22.20;42.60;;;;;;5013565;28;20239;-42
2024/02/21 00:12:55;;;;;;;0.10;0.10;;;22.30;42.60;;;;;;5013126;28;20223;-41
2024/02/21 00:15:26;;;;;;;0.00;0.00;;;22.30;42.50;;;;;;5012712;28;20205;-42
2024/02/21 00:17:56;;;;;;;0.00;0.00;;;22.30;42.60;;;;;;5013718;28;20207;-41
2024/02/21 00:20:27;;;;;;;0.03;0.03;;;22.30;42.50;;;;;;5013492;28;20217;-42
2024/02/21 00:22:58;;;;;;;0.10;0.10;;;22.40;42.60;;;;;;5013398;28;20299;-40
2024/02/21 00:25:30;;;;;;;0.00;0.00;;;22.40;42.60;;;;;;5013751;28;20594;-42
2024/02/21 00:28:01;;;;;;;0.10;0.10;;;22.40;42.50;;;;;;5013598;28;20200;-41
2024/02/21 00:30:31;;;;;;;0.00;0.00;;;22.50;42.50;;;;;;5013531;28;20231;-41
2024/02/21 00:33:02;;;;;;;0.00;0.00;;;22.50;42.50;;;;;;5013888;28;20196;-42
2024/02/21 00:35:33;;;;;;;0.10;0.10;;;22.50;42.50;;;;;;5013481;28;20207;-41
2024/02/21 00:38:03;;;;;;;0.00;0.00;;;22.50;42.60;;;;;;5013571;28;20216;-42
2024/02/21 00:40:36;;;;;;;0.00;0.00;;;22.60;42.60;;;;;;5013358;28;20605;-41
2024/02/21 00:43:07;;;;;;;0.10;0.10;;;22.60;42.50;;;;;;5013474;28;20208;-41
2024/02/21 00:45:37;;;;;;;0.00;0.00;;;22.60;42.50;;;;;;5013144;28;20228;-41
2024/02/21 00:48:09;;;;;;;0.00;0.00;;;22.60;42.50;;;;;;5013308;28;20712;-42
2024/02/21 00:50:39;;;;;;;0.10;0.10;;;22.70;42.50;;;;;;5012987;28;20221;-41
2024/02/21 00:53:10;;;;;;;0.10;0.10;;;22.70;42.60;;;;;;5013507;28;20208;-40
2024/02/21 00:55:43;;;;;;;0.00;0.00;;;22.70;42.50;;;;;;5012380;28;20189;-41
2024/02/21 00:58:13;;;;;;;0.00;0.00;;;22.80;42.60;;;;;;5012970;28;20275;-41
2024/02/21 01:00:44;;;;;;;0.00;0.00;;;22.80;43.20;;;;;;5003746;28;20712;-40
2024/02/21 01:03:15;;;;;;;0.00;0.00;;;22.80;42.50;;;;;;4993433;28;20209;-40
2024/02/21 01:05:45;;;;;;;0.00;0.00;;;22.80;42.50;;;;;;4993649;28;20232;-41
2024/02/21 01:08:16;;;;;;;0.00;0.00;;;22.80;42.50;;;;;;5012998;28;20673;-41
2024/02/21 01:10:49;;;;;;;0.00;0.00;;;22.90;42.50;;;;;;5013167;28;20232;-42
2024/02/21 01:13:19;;;;;;;0.00;0.00;;;22.90;42.50;;;;;;5012779;28;20207;-41
2024/02/21 01:15:50;;;;;;;0.10;0.10;;;22.90;42.40;;;;;;5012338;28;20193;-44
2024/02/21 01:18:21;;;;;;;0.00;0.00;;;22.90;42.50;;;;;;5012732;28;20200;-41
2024/02/21 01:20:51;;;;;;;0.00;0.00;;;23.00;42.50;;;;;;5013007;28;20200;-43
2024/02/21 01:23:22;;;;;;;0.00;0.00;;;23.00;43.10;;;;;;5013014;28;20259;-43
2024/02/21 01:25:55;;;;;;;0.00;0.00;;;23.00;42.50;;;;;;5012232;28;20225;-41
2024/02/21 01:28:25;;;;;;;0.10;0.10;;;23.00;42.40;;;;;;5011907;28;20219;-41
2024/02/21 01:30:56;;;;;;;0.03;0.03;;;23.00;42.40;;;;;;5011996;28;20197;-41
2024/02/21 01:33:27;;;;;;;0.00;0.00;;;23.10;42.50;;;;;;5012505;28;20217;-43
2024/02/21 01:35:57;;;;;;;0.00;0.00;;;23.10;42.40;;;;;;5012313;28;20204;-43
2024/02/21 01:38:28;;;;;;;0.00;0.00;;;23.10;42.40;;;;;;5009070;28;20188;-43
2024/02/21 01:41:00;;;;;;;0.00;0.00;;;23.20;42.40;;;;;;5012272;28;20672;-41
2024/02/21 01:43:31;;;;;;;0.00;0.00;;;23.10;42.30;;;;;;5012306;28;20197;-42
2024/02/21 01:46:02;;;;;;;0.00;0.00;;;23.20;42.30;;;;;;5011701;28;20696;-41
2024/02/21 01:48:33;;;;;;;0.00;0.00;;;23.20;42.30;;;;;;5012046;28;20208;-41
2024/02/21 01:51:07;;;;;;;0.00;0.00;;;23.20;42.20;;;;;;4998353;28;20190;-41
2024/02/21 01:53:42;;;;;;;0.00;0.00;;;23.20;42.20;;;;;;4992060;28;20676;-41
2024/02/21 01:56:15;;;;;;;0.00;0.00;;;23.20;42.20;;;;;;4991862;28;20197;-41
2024/02/21 01:58:46;;;;;;;0.00;0.00;;;23.20;42.20;;;;;;4992371;28;20260;-41
2024/02/21 02:01:17;;;;;;;0.00;0.00;;;23.20;42.20;;;;;;4992399;28;20208;-41
2024/02/21 02:03:49;;;;;;;0.00;0.00;;;23.20;42.20;;;;;;5006148;28;20204;-41
2024/02/21 02:06:20;;;;;;;0.00;0.00;;;23.30;42.20;;;;;;5011257;28;20686;-43
2024/02/21 02:08:50;;;;;;;0.00;0.00;;;23.30;42.10;;;;;;5008548;28;20221;-41
2024/02/21 02:11:23;;;;;;;0.00;0.00;;;23.30;42.10;;;;;;5011735;28;20676;-42
2024/02/21 02:13:54;;;;;;;0.00;0.00;;;23.30;42.10;;;;;;5011744;28;20197;-41
2024/02/21 02:16:25;;;;;;;0.00;0.00;;;23.30;42.00;;;;;;5011971;28;20208;-41
2024/02/21 02:18:55;;;;;;;0.00;0.00;;;23.40;42.00;;;;;;5011948;28;20220;-41
2024/02/21 02:21:32;;;;;;;0.00;0.00;;;23.40;42.00;;;;;;5011851;28;20208;-41
2024/02/21 02:24:05;;;;;;;0.00;0.00;;;23.40;42.00;;;;;;5011780;28;20196;-41
2024/02/21 02:26:36;;;;;;;0.00;0.00;;;23.40;41.90;;;;;;5011550;28;20227;-41
2024/02/21 02:29:06;;;;;;;0.08;0.08;;;23.40;41.90;;;;;;5011588;28;20224;-41
2024/02/21 02:31:37;;;;;;;0.00;0.00;;;23.40;41.80;;;;;;5011760;28;20211;-42
2024/02/21 02:34:08;;;;;;;0.00;0.00;;;23.50;41.80;;;;;;5011991;28;20200;-42
2024/02/21 02:36:40;;;;;;;0.00;0.00;;;23.50;41.80;;;;;;5011705;28;20205;-41
2024/02/21 02:39:12;;;;;;;0.00;0.00;;;23.50;41.70;;;;;;5014485;28;20220;-42
2024/02/21 02:41:43;;;;;;;0.00;0.00;;;23.50;41.60;;;;;;4998200;28;20197;-41
2024/02/21 02:44:13;;;;;;;0.00;0.00;;;23.50;41.60;;;;;;4995067;28;20208;-41
2024/02/21 02:46:45;;;;;;;0.10;0.10;;;23.50;41.60;;;;;;4995324;28;20237;-40
2024/02/21 02:49:15;;;;;;;0.00;0.00;;;23.50;41.50;;;;;;4995167;28;20213;-42
2024/02/21 02:51:46;;;;;;;0.00;0.00;;;23.50;41.50;;;;;;4995755;28;20552;-41
2024/02/21 02:54:19;;;;;;;0.00;0.00;;;23.50;41.40;;;;;;4995944;28;20193;-41
2024/02/21 02:56:49;;;;;;;0.05;0.05;;;23.60;41.50;;;;;;4995515;28;20197;-42
2024/02/21 02:59:20;;;;;;;0.00;0.00;;;23.60;41.40;;;;;;4995826;28;20225;-42
2024/02/21 03:01:51;;;;;;;0.00;0.00;;;23.60;41.40;;;;;;4995736;28;20259;-41
2024/02/21 03:04:21;;;;;;;0.03;0.03;;;23.60;41.30;;;;;;4995595;28;20218;-41
2024/02/21 03:06:52;;;;;;;0.10;0.10;;;23.70;41.10;;;;;;5005185;28;20247;-41
2024/02/21 03:09:25;;;;;;;0.00;0.00;;;23.70;41.00;;;;;;5010013;28;20217;-41
2024/02/21 03:11:57;;;;;;;0.00;0.00;;;23.70;41.10;;;;;;4995660;28;20201;-42
2024/02/21 03:14:27;;;;;;;0.00;0.00;;;23.70;40.90;;;;;;4995537;28;20288;-41
2024/02/21 03:16:58;;;;;;;0.03;0.03;;;23.70;40.90;;;;;;4995220;28;20208;-42
2024/02/21 03:19:29;;;;;;;0.00;0.00;;;23.70;40.80;;;;;;4995417;28;20619;-41
2024/02/21 03:21:59;;;;;;;0.00;0.00;;;23.70;40.70;;;;;;4995229;28;20197;-41
2024/02/21 03:24:33;;;;;;;0.00;0.00;;;23.80;40.70;;;;;;4995105;28;20193;-41
2024/02/21 03:27:04;;;;;;;0.00;0.00;;;23.80;40.70;;;;;;4994924;28;20221;-41
2024/02/21 03:29:34;;;;;;;0.03;0.03;;;23.80;40.70;;;;;;4994642;28;20221;-42
2024/02/21 03:32:05;;;;;;;0.00;0.00;;;23.80;40.70;;;;;;4995219;28;20201;-41
2024/02/21 03:34:36;;;;;;;0.05;0.05;;;23.80;40.70;;;;;;4995056;28;20562;-42
2024/02/21 03:37:07;;;;;;;0.00;0.00;;;23.80;40.60;;;;;;5006485;28;20220;-42
2024/02/21 03:39:39;;;;;;;0.00;0.00;;;23.80;40.60;;;;;;5014510;28;20224;-41
2024/02/21 03:42:10;;;;;;;0.00;0.00;;;23.80;40.60;;;;;;5012201;28;20652;-43
2024/02/21 03:44:41;;;;;;;0.00;0.00;;;23.90;40.50;;;;;;5014730;28;20193;-42
2024/02/21 03:47:12;;;;;;;0.00;0.00;;;23.90;40.60;;;;;;5014501;28;20220;-41
2024/02/21 03:49:42;;;;;;;0.05;0.05;;;23.90;40.60;;;;;;5013528;28;20253;-41
2024/02/21 03:52:13;;;;;;;0.00;0.00;;;23.90;40.50;;;;;;5014728;28;20193;-41
2024/02/21 03:54:45;;;;;;;0.00;0.00;;;24.00;40.50;;;;;;5015176;28;20197;-42
2024/02/21 03:57:17;;;;;;;0.00;0.00;;;24.00;40.50;;;;;;5014671;28;20200;-41
2024/02/21 03:59:47;;;;;;;0.03;0.03;;;24.00;40.40;;;;;;5013929;28;20221;-42
2024/02/21 04:02:18;;;;;;;0.10;0.10;;;24.00;40.40;;;;;;5014200;28;20209;-42
2024/02/21 04:04:49;;;;;;;0.00;0.00;;;24.00;40.30;;;;;;5013526;28;20205;-41
2024/02/21 04:07:19;;;;;;;0.00;0.00;;;24.10;40.40;;;;;;5010852;28;20201;-42
2024/02/21 04:09:52;;;;;;;0.00;0.00;;;24.10;40.30;;;;;;5013907;28;20227;-41
2024/02/21 04:12:22;;;;;;;0.00;0.00;;;24.10;40.30;;;;;;5013916;28;20562;-42
2024/02/21 04:14:53;;;;;;;0.00;0.00;;;24.10;40.40;;;;;;5013487;28;20243;-41
2024/02/21 04:17:24;;;;;;;0.00;0.00;;;24.10;40.40;;;;;;5014008;28;20208;-41
2024/02/21 04:20:05;;;;;;;0.00;0.00;;;24.10;40.40;;;;;;5013951;28;20221;-42
2024/02/21 04:22:35;;;;;;;0.08;0.08;;;24.20;40.50;;;;;;5013878;28;20200;-41
2024/02/21 04:25:08;;;;;;;0.00;0.00;;;24.20;40.50;;;;;;5013548;28;20215;-44
2024/02/21 04:27:39;;;;;;;0.10;0.10;;;24.20;40.50;;;;;;5013600;28;20216;-41
2024/02/21 04:30:11;;;;;;;0.00;0.00;;;24.20;40.60;;;;;;5012786;28;20665;-41
2024/02/21 04:32:42;;;;;;;0.00;0.00;;;24.20;40.60;;;;;;5013096;28;20283;-42
2024/02/21 04:35:12;;;;;;;0.00;0.00;;;24.30;40.60;;;;;;5013371;28;20232;-43
2024/02/21 04:37:43;;;;;;;0.00;0.00;;;24.30;41.20;;;;;;5013371;28;20201;-43
2024/02/21 04:40:16;;;;;;;0.00;0.00;;;24.30;40.60;;;;;;5012830;28;20221;-42
2024/02/21 04:42:47;;;;;;;0.00;0.00;;;24.30;40.50;;;;;;5012799;28;20197;-43
2024/02/21 04:45:18;;;;;;;0.00;0.00;;;24.30;40.60;;;;;;5013092;28;20205;-44
2024/02/21 04:47:49;;;;;;;0.00;0.00;;;24.40;40.50;;;;;;5013350;28;20661;-40
2024/02/21 04:50:20;;;;;;;0.00;0.00;;;24.40;40.50;;;;;;5013214;28;20213;-41
2024/02/21 04:52:51;;;;;;;0.00;0.00;;;24.40;40.50;;;;;;5013139;28;20197;-41
2024/02/21 04:55:23;;;;;;;0.00;0.00;;;24.50;40.50;;;;;;5013238;28;20649;-42
2024/02/21 04:57:54;;;;;;;0.00;0.00;;;24.50;40.50;;;;;;5013446;28;20240;-41
2024/02/21 05:00:25;;;;;;;0.00;0.00;;;24.50;40.50;;;;;;5012757;28;20221;-42
2024/02/21 05:02:55;;;;;;;0.08;0.08;;;24.50;40.50;;;;;;5012912;28;20212;-41
2024/02/21 05:05:26;;;;;;;0.00;0.00;;;24.50;40.50;;;;;;5012820;28;20204;-41
2024/02/21 05:07:57;;;;;;;0.00;0.00;;;24.50;40.40;;;;;;5000326;28;20201;-41
2024/02/21 05:10:29;;;;;;;0.00;0.00;;;24.50;40.30;;;;;;4993454;28;20692;-42
2024/02/21 05:13:00;;;;;;;0.00;0.00;;;24.50;40.40;;;;;;4992943;28;20654;-41
2024/02/21 05:15:32;;;;;;;0.00;0.00;;;24.50;40.40;;;;;;4993234;28;20197;-41
2024/02/21 05:18:02;;;;;;;0.00;0.00;;;24.60;40.40;;;;;;4993144;28;20197;-41
2024/02/21 05:20:33;;;;;;;0.00;0.00;;;24.60;40.40;;;;;;4992493;28;20232;-41
2024/02/21 05:23:03;;;;;;;0.00;0.00;;;24.60;40.40;;;;;;4992500;28;20565;-41
2024/02/21 05:25:36;;;;;;;0.10;0.10;;;24.60;40.40;;;;;;4992953;28;20197;-42
2024/02/21 05:28:07;;;;;;;0.00;0.00;;;24.60;40.40;;;;;;4992445;28;20545;-41
2024/02/21 05:30:38;;;;;;;0.00;0.00;;;24.60;40.40;;;;;;4993268;28;20217;-44
2024/02/21 05:33:09;;;;;;;0.00;0.00;;;24.60;40.40;;;;;;4993920;28;20205;-41
2024/02/21 05:35:41;;;;;;;0.00;0.00;;;24.60;40.40;;;;;;4992979;28;20197;-41
2024/02/21 05:38:11;;;;;;;0.00;0.00;;;24.60;40.40;;;;;;4993002;28;20204;-42
2024/02/21 05:40:44;;;;;;;0.00;0.00;;;24.60;40.40;;;;;;4992397;28;20217;-41
2024/02/21 05:43:15;;;;;;;0.10;0.10;;;24.70;40.40;;;;;;4992406;28;20205;-41
2024/02/21 05:45:45;;;;;;;0.00;0.00;;;24.70;40.40;;;;;;4992626;28;20225;-43
2024/02/21 05:48:16;;;;;;;0.00;0.00;;;24.70;40.40;;;;;;5010429;28;20691;-42
2024/02/21 05:50:46;;;;;;;0.00;0.00;;;24.60;40.30;;;;;;5011826;28;20638;-41
2024/02/21 05:53:17;;;;;;;0.00;0.00;;;24.60;40.30;;;;;;5011833;28;20201;-42
2024/02/21 05:55:50;;;;;;;0.00;0.00;;;24.60;40.30;;;;;;5012345;28;20636;-41
2024/02/21 05:58:20;;;;;;;0.10;0.10;;;24.60;40.30;;;;;;5011784;28;20201;-41
2024/02/21 06:00:51;;;;;;;0.00;0.00;;;24.60;40.30;;;;;;5011360;28;20200;-41
2024/02/21 06:03:22;;;;;;;0.00;0.00;;;24.60;40.30;;;;;;5011835;28;20675;-42
2024/02/21 06:05:52;;;;;;;0.00;0.00;;;24.60;40.30;;;;;;5008350;28;20231;-41
2024/02/21 06:08:23;;;;;;;0.10;0.10;;;24.60;40.30;;;;;;5011304;28;20193;-41
2024/02/21 06:10:56;;;;;;;0.00;0.00;;;24.60;40.30;;;;;;5012155;28;20204;-40
2024/02/21 06:13:27;;;;;;;0.00;0.00;;;24.50;40.30;;;;;;5011186;28;20197;-42
2024/02/21 06:15:58;;;;;;;0.10;0.10;;;24.50;40.30;;;;;;5010926;28;20213;-41
2024/02/21 06:18:28;;;;;;;0.00;0.00;;;24.50;40.30;;;;;;5011566;28;20196;-41
2024/02/21 06:20:59;;;;;;;0.00;0.00;;;24.50;40.40;;;;;;5011359;28;20196;-41
2024/02/21 06:23:30;;;;;;;0.00;0.00;;;24.50;40.40;;;;;;5011433;28;20267;-41
2024/02/21 06:26:02;;;;;;;0.00;0.00;;;24.50;40.40;;;;;;5011803;28;20221;-42
2024/02/21 06:28:33;;;;;;;0.00;0.00;;;24.50;40.40;;;;;;5011310;28;20196;-41
2024/02/21 06:31:04;;;;;;;0.00;0.00;;;24.50;40.50;;;;;;5011342;28;20197;-41
2024/02/21 06:33:34;;;;;;;0.00;0.00;;;24.50;40.50;;;;;;4995912;28;20201;-41
2024/02/21 06:36:05;;;;;;;0.00;0.00;;;24.50;40.50;;;;;;4995040;28;20280;-42
2024/02/21 06:38:36;;;;;;;0.00;0.00;;;24.50;40.50;;;;;;5011401;28;20650;-41
2024/02/21 06:41:08;;;;;;;0.00;0.00;;;24.40;40.40;;;;;;5011336;28;20235;-41
2024/02/21 06:43:39;;;;;;;0.00;0.00;;;24.40;40.50;;;;;;5011310;28;20197;-42
2024/02/21 06:46:09;;;;;;;0.00;0.00;;;24.40;40.50;;;;;;5010842;28;20235;-41
2024/02/21 06:48:40;;;;;;;0.00;0.00;;;24.40;40.50;;;;;;5010605;28;20196;-42
2024/02/21 06:51:11;;;;;;;0.00;0.00;;;24.30;40.40;;;;;;5011000;28;20708;-41
2024/02/21 06:53:41;;;;;;;0.00;0.00;;;24.30;40.50;;;;;;5010606;28;20201;-42
2024/02/21 06:56:14;;;;;;;0.00;0.00;;;24.30;40.50;;;;;;5010799;28;20283;-41
2024/02/21 06:58:45;;;;;;;0.00;0.00;;;24.30;40.50;;;;;;5010718;28;20213;-42
2024/02/21 07:01:15;;;;;;;0.00;0.00;;;24.30;40.50;;;;;;5010448;28;20208;-42
2024/02/21 07:03:46;;;;;;;0.00;0.00;;;24.30;40.60;;;;;;5010041;28;20201;-42
2024/02/21 07:06:20;;;;;;;0.00;0.00;;;24.30;40.60;;;;;;4996683;28;20228;-41
2024/02/21 07:08:51;;;;;;;0.00;0.00;;;24.20;40.60;;;;;;5010476;28;20831;-40
2024/02/21 07:11:24;;;;;;;0.08;0.08;;;24.20;40.60;;;;;;5010504;28;20625;-41
2024/02/21 07:13:55;;;;;;;0.00;0.00;;;24.20;40.70;;;;;;5010678;28;20666;-42
2024/02/21 07:16:26;;;;;;;0.00;0.00;;;24.20;40.70;;;;;;5010543;28;20235;-41
2024/02/21 07:18:58;;;;;;;0.00;0.00;;;24.20;40.70;;;;;;5011105;28;20213;-41
2024/02/21 07:21:28;;;;;;;0.00;0.00;;;24.20;40.80;;;;;;5010246;28;20881;-41
2024/02/21 07:23:59;;;;;;;0.08;0.08;;;24.10;40.70;;;;;;5010436;28;20224;-41
2024/02/21 07:26:31;;;;;;;0.00;0.00;;;24.10;40.70;;;;;;5014148;28;20213;-40
2024/02/21 07:29:02;;;;;;;0.10;0.10;;;24.10;40.80;;;;;;5014230;28;20217;-41
2024/02/21 07:31:33;;;;;;;0.10;0.10;;;24.10;40.80;;;;;;5014520;28;20204;-42
2024/02/21 07:34:03;;;;;;;0.00;0.00;;;24.10;40.80;;;;;;5014640;28;20653;-41
2024/02/21 07:36:34;;;;;;;0.00;0.00;;;24.00;40.80;;;;;;5009272;28;20575;-41
2024/02/21 07:39:05;;;;;;;0.00;0.00;;;24.00;40.90;;;;;;5013302;28;20279;-41
2024/02/21 07:41:39;;;;;;;0.00;0.00;;;24.00;40.90;;;;;;5014128;28;20239;-42
2024/02/21 07:44:09;;;;;;;0.00;0.00;;;24.00;41.00;;;;;;5014175;28;20193;-41
2024/02/21 07:46:40;;;;;;;0.00;0.00;;;24.00;41.00;;;;;;5013407;28;20300;-42
2024/02/21 07:49:11;;;;;;;0.10;0.10;;;24.00;41.00;;;;;;5013469;28;20225;-42
2024/02/21 07:51:42;;;;;;;0.00;0.00;;;23.90;41.00;;;;;;5013588;28;20197;-42
2024/02/21 07:54:12;;;;;;;0.10;0.10;;;23.90;41.00;;;;;;5013855;28;20209;-41
2024/02/21 07:56:45;;;;;;;0.00;0.00;;;23.90;41.00;;;;;;5014226;28;20201;-41
2024/02/21 07:59:15;;;;;;;0.00;0.00;;;23.90;41.10;;;;;;5013651;28;20275;-41
2024/02/21 08:01:46;;;;;;;0.00;0.00;;;23.90;41.10;;;;;;5010686;28;20205;-41
2024/02/21 08:04:17;;;;;;;0.00;0.00;;;23.90;41.10;;;;;;5014246;28;20291;-42
2024/02/21 08:06:48;;;;;;;0.00;0.00;;;23.80;41.00;;;;;;5013444;28;20231;-42
2024/02/21 08:09:19;;;;;;;0.00;0.00;;;23.80;41.00;;;;;;5013323;28;20308;-41
2024/02/21 08:11:52;;;;;;;0.00;0.00;;;23.80;41.10;;;;;;5013569;28;20204;-42
2024/02/21 08:14:24;;;;;;;0.00;0.00;;;23.80;41.10;;;;;;5013563;28;20247;-41
2024/02/21 08:16:55;;;;;;;0.00;0.00;;;23.80;41.20;;;;;;5013386;28;20201;-41
2024/02/21 08:19:26;;;;;;;0.10;0.10;;;23.80;41.30;;;;;;5006022;28;20231;-41
2024/02/21 08:21:56;;;;;;;0.00;0.00;;;23.80;41.40;;;;;;4992040;28;20223;-42
2024/02/21 08:24:27;;;;;;;0.00;0.00;;;23.80;41.50;;;;;;4989559;28;20662;-41
2024/02/21 08:26:59;;;;;;;0.00;0.00;;;23.80;41.50;;;;;;4990508;28;20236;-42
2024/02/21 08:29:30;;;;;;;0.08;0.08;;;23.80;41.50;;;;;;4989395;28;20240;-41
2024/02/21 08:32:01;;;;;;;0.00;0.00;;;23.80;41.50;;;;;;5003399;28;20205;-42
2024/02/21 08:34:33;;;;;;;0.00;0.00;;;23.70;41.40;;;;;;5023083;28;20196;-41
2024/02/21 08:37:04;;;;;;;0.00;0.00;;;23.70;41.40;;;;;;5017124;28;20630;-40
2024/02/21 08:39:35;;;;;;;0.00;0.00;;;23.80;41.50;;;;;;5008469;28;20330;-41
2024/02/21 08:42:08;;;;;;;0.00;0.00;;;23.70;41.40;;;;;;5008159;28;20200;-41
2024/02/21 08:44:42;;;;;;;0.00;0.00;;;23.70;41.40;;;;;;5008789;28;20207;-41
2024/02/21 08:47:13;;;;;;;0.00;0.00;;;23.70;41.40;;;;;;5023142;28;20254;-40
2024/02/21 08:49:44;;;;;;;0.00;0.00;;;23.70;41.40;;;;;;5028042;28;20539;-41
2024/02/21 08:52:15;;;;;;;0.00;0.00;;;23.70;41.40;;;;;;5014269;28;20196;-40
2024/02/21 08:54:45;;;;;;;0.00;0.00;;;23.70;41.40;;;;;;5000087;28;20201;-40
2024/02/21 08:57:18;;;;;;;0.10;0.10;;;23.60;41.30;;;;;;4989365;28;20206;-41
2024/02/21 08:59:49;;;;;;;0.00;0.00;;;23.70;41.40;;;;;;5022760;28;20227;-40
2024/02/21 09:02:20;;;;;;;0.10;0.10;;;23.70;41.40;;;;;;5018912;28;20220;-40
2024/02/21 09:04:50;;;;;;;0.00;0.00;;;23.60;41.30;;;;;;5009517;28;20220;-41
2024/02/21 09:07:21;;;;;;;0.00;0.00;;;23.60;41.30;;;;;;5008199;28;20705;-40
2024/02/21 09:09:52;;;;;;;0.00;0.00;;;23.60;41.30;;;;;;5007242;28;20220;-40
2024/02/21 09:12:24;;;;;;;0.00;0.00;;;23.60;41.30;;;;;;5012933;28;20192;-43
2024/02/21 09:14:55;;;;;;;0.08;0.08;;;23.60;41.30;;;;;;5006231;28;20204;-42
2024/02/21 09:17:29;;;;;;;0.10;0.10;;;23.60;41.30;;;;;;5009205;28;20607;-42
2024/02/21 09:20:03;;;;;;;0.00;0.00;;;23.60;41.20;;;;;;5008271;28;20267;-45
2024/02/21 09:22:34;;;;;;;0.00;0.00;;;23.50;41.20;;;;;;5008330;28;20201;-42
2024/02/21 09:25:05;;;;;;;0.00;0.00;;;23.50;41.20;;;;;;5009319;28;20291;-42
2024/02/21 09:27:37;;;;;;;0.00;0.00;;;23.50;41.20;;;;;;5027337;28;20286;-43
2024/02/21 09:30:09;;;;;;;0.00;0.00;;;23.50;41.20;;;;;;5028569;28;20227;-44
2024/02/21 09:32:40;;;;;;;0.00;0.00;;;23.50;41.20;;;;;;5028773;28;20591;-42
2024/02/21 09:35:12;;;;;;;0.10;0.10;;;23.50;41.80;;;;;;5028921;28;20652;-44
2024/02/21 09:37:43;;;;;;;0.00;0.00;;;23.40;41.10;;;;;;5010805;28;20635;-42
2024/02/21 09:40:17;;;;;;;0.00;0.00;;;23.40;41.10;;;;;;5022563;28;20227;-42
2024/02/21 09:42:50;;;;;;;0.00;0.00;;;23.40;41.20;;;;;;5027525;28;20294;-41
2024/02/21 09:45:25;;;;;;;0.10;0.10;;;23.40;41.20;;;;;;4991003;28;20701;-42
2024/02/21 09:48:10;;;;;;;0.00;0.00;;;23.30;41.10;;;;;;4987389;28;20720;-42
2024/02/21 09:50:45;;;;;;;0.00;0.00;;;23.30;41.10;;;;;;4988914;28;20565;-42
2024/02/21 09:53:17;;;;;;;0.00;0.00;;;23.30;41.10;;;;;;4997745;28;20207;-42
2024/02/21 09:55:49;;;;;;;0.00;0.00;;;23.30;41.10;;;;;;4989506;28;20205;-42
2024/02/21 09:58:21;;;;;;;0.00;0.00;;;23.30;41.10;;;;;;4989185;28;20202;-43
2024/02/21 10:00:52;;;;;;;0.00;0.00;;;23.30;41.10;;;;;;4988325;28;20293;-45
2024/02/21 10:03:23;;;;;;;0.00;0.00;;;23.30;41.10;;;;;;4989002;28;20209;-42
2024/02/21 10:05:53;;;;;;;0.00;0.00;;;23.30;41.10;;;;;;5011264;28;20210;-43
2024/02/21 10:08:24;;;;;;;0.00;0.00;;;23.20;41.10;;;;;;5007259;28;20236;-41
2024/02/21 10:10:58;;;;;;;0.00;0.00;;;23.20;41.10;;;;;;5006592;28;20200;-41
2024/02/21 10:13:32;;;;;;;0.00;0.00;;;23.20;41.10;;;;;;5007641;28;20203;-42
2024/02/21 10:16:07;;;;;;;0.00;0.00;;;23.10;41.00;;;;;;5006470;28;20231;-41
2024/02/21 10:18:38;;;;;;;0.00;0.00;;;23.10;41.00;;;;;;5016719;28;20199;-40
2024/02/21 10:21:10;;;;;;;0.00;0.00;;;23.10;41.10;;;;;;5028392;28;20668;-40
2024/02/21 10:23:47;;;;;;;0.00;0.00;;;23.10;41.10;;;;;;5027026;28;20218;-42
2024/02/21 10:26:18;;;;;;;0.05;0.05;;;23.00;41.10;;;;;;5006566;28;20212;-42
2024/02/21 10:28:51;;;;;;;0.00;0.00;;;23.00;41.10;;;;;;5007214;28;20236;-40
2024/02/21 10:31:28;;;;;;;0.00;0.00;;;23.00;41.10;;;;;;5020396;28;20207;-40
2024/02/21 10:34:00;;;;;;;0.00;0.00;;;23.00;41.20;;;;;;5027558;28;20208;-42
2024/02/21 10:36:30;;;;;;;0.00;0.00;;;22.90;41.10;;;;;;5021789;28;20204;-41
2024/02/21 10:39:01;;;;;;;0.00;0.00;;;22.90;41.10;;;;;;5007353;28;20228;-41
2024/02/21 10:41:34;;;;;;;0.00;0.00;;;22.90;41.10;;;;;;5007375;28;20289;-44
2024/02/21 10:44:11;;;;;;;0.00;0.00;;;22.90;41.20;;;;;;5024740;28;20196;-41
2024/02/21 10:46:44;;;;;;;0.00;0.00;;;22.90;41.20;;;;;;5027300;28;20199;-40
2024/02/21 10:49:25;;;;;;;0.00;0.00;;;22.80;41.10;;;;;;5026885;28;20227;-44
2024/02/21 10:52:00;;;;;;;0.00;0.00;;;22.90;41.20;;;;;;5018058;28;20588;-42
2024/02/21 10:54:50;;;;;;;0.10;0.10;;;22.80;41.10;;;;;;5008172;28;20200;-42
2024/02/21 10:57:22;;;;;;;0.10;0.10;;;22.80;41.10;;;;;;5023934;28;20200;-42
2024/02/21 10:59:56;;;;;;;0.00;0.00;;;22.80;41.10;;;;;;5029016;28;20231;-43
2024/02/21 11:02:28;;;;;;;0.00;0.00;;;22.80;41.20;;;;;;5031076;28;20213;-43
2024/02/21 11:05:00;;;;;;;0.00;0.00;;;22.80;41.20;;;;;;5006236;28;20279;-42
2024/02/21 11:07:32;;;;;;;0.10;0.10;;;22.80;41.20;;;;;;5015329;28;20703;-43
2024/02/21 11:10:03;;;;;;;0.00;0.00;;;22.70;41.10;;;;;;5015259;28;20228;-41
2024/02/21 11:12:36;;;;;;;0.00;0.00;;;22.70;41.10;;;;;;5014973;28;20243;-41
2024/02/21 11:15:14;;;;;;;0.00;0.00;;;22.70;41.10;;;;;;4997846;28;20198;-40
2024/02/21 11:17:44;;;;;;;0.10;0.10;;;22.70;41.10;;;;;;4995558;28;20226;-41
2024/02/21 11:20:16;;;;;;;0.00;0.00;;;22.70;41.20;;;;;;4995183;28;20221;-41
2024/02/21 11:22:47;;;;;;;0.00;0.00;;;22.60;41.20;;;;;;4994586;28;20193;-41
2024/02/21 11:25:25;;;;;;;0.05;0.05;;;22.60;41.20;;;;;;4999683;28;20233;-41
2024/02/21 11:28:03;;;;;;;0.00;0.00;;;22.50;41.20;;;;;;5002738;28;20216;-41
2024/02/21 11:30:38;;;;;;;0.00;0.00;;;22.50;41.20;;;;;;5003256;28;20225;-42
2024/02/21 11:33:10;;;;;;;0.00;0.00;;;22.50;41.20;;;;;;5002968;28;20552;-40
2024/02/21 11:35:41;;;;;;;0.00;0.00;;;22.50;41.20;;;;;;5003638;28;20189;-41
2024/02/21 11:38:16;;;;;;;0.00;0.00;;;22.50;41.20;;;;;;5003192;28;20194;-40
2024/02/21 11:40:49;;;;;;;0.00;0.00;;;22.50;41.20;;;;;;5001962;28;20735;-41
2024/02/21 11:43:20;;;;;;;0.00;0.00;;;22.50;41.20;;;;;;5004184;28;20193;-40
2024/02/21 11:45:52;;;;;;;0.00;0.00;;;22.40;41.20;;;;;;5004913;28;20208;-43
2024/02/21 11:48:24;;;;;;;0.00;0.00;;;22.40;41.20;;;;;;5004649;28;20225;-41
2024/02/21 11:50:58;;;;;;;0.00;0.00;;;22.40;41.20;;;;;;5003726;28;20224;-41
2024/02/21 11:53:30;;;;;;;0.00;0.00;;;22.40;41.20;;;;;;5003123;28;20200;-41
2024/02/21 11:56:01;;;;;;;0.00;0.00;;;22.40;41.20;;;;;;5004121;28;20207;-41
2024/02/21 11:58:32;;;;;;;0.00;0.00;;;22.40;41.80;;;;;;5002438;28;20193;-41
2024/02/21 12:01:07;;;;;;;0.00;0.00;;;22.40;41.20;;;;;;5004983;28;20193;-41
2024/02/21 12:03:38;;;;;;;0.10;0.10;;;22.30;41.10;;;;;;5003170;28;20193;-43
2024/02/21 12:06:10;;;;;;;0.10;0.10;;;22.30;41.20;;;;;;5003801;28;20197;-41
2024/02/21 12:08:47;;;;;;;0.00;0.00;;;22.30;41.10;;;;;;5003133;28;20580;-41
2024/02/21 12:11:23;;;;;;;0.00;0.00;;;22.30;41.10;;;;;;5002180;28;20678;-41
2024/02/21 12:14:03;;;;;;;0.00;0.00;;;22.30;41.20;;;;;;5002953;28;20193;-41
2024/02/21 12:16:36;;;;;;;0.00;0.00;;;22.30;41.20;;;;;;5003050;28;20646;-42
2024/02/21 12:19:08;;;;;;;0.00;0.00;;;22.20;41.10;;;;;;5002655;28;20214;-41
2024/02/21 12:21:39;;;;;;;0.00;0.00;;;22.20;41.20;;;;;;5003132;28;20193;-42
2024/02/21 12:24:16;;;;;;;0.00;0.00;;;22.20;41.20;;;;;;5004427;28;20649;-41
2024/02/21 12:26:47;;;;;;;0.00;0.00;;;22.20;41.20;;;;;;5004546;28;20745;-42
2024/02/21 12:29:18;;;;;;;0.10;0.10;;;22.20;41.20;;;;;;5002386;28;20229;-42
2024/02/21 12:31:51;;;;;;;0.00;0.00;;;22.10;41.20;;;;;;5001989;28;20190;-42
2024/02/21 12:34:22;;;;;;;0.00;0.00;;;22.10;41.20;;;;;;5002700;28;20666;-42
2024/02/21 12:36:52;;;;;;;0.00;0.00;;;22.10;41.20;;;;;;5002493;28;20663;-42
2024/02/21 12:39:23;;;;;;;0.05;0.05;;;22.10;41.20;;;;;;5002604;28;20259;-40
2024/02/21 12:41:54;;;;;;;0.05;0.05;;;22.10;41.20;;;;;;5002783;28;20193;-40
2024/02/21 12:44:24;;;;;;;0.00;0.00;;;22.10;41.20;;;;;;5002361;28;20199;-43
2024/02/21 12:46:57;;;;;;;0.00;0.00;;;22.10;41.20;;;;;;5002189;28;20197;-42
2024/02/21 12:49:29;;;;;;;0.00;0.00;;;22.10;41.20;;;;;;5004260;28;20224;-40
2024/02/21 12:52:00;;;;;;;0.10;0.10;;;22.00;41.10;;;;;;5013097;28;20201;-41
2024/02/21 12:54:30;;;;;;;0.03;0.03;;;22.00;41.10;;;;;;5013355;28;20197;-42
2024/02/21 12:57:02;;;;;;;0.10;0.10;;;22.00;41.10;;;;;;5014012;28;20288;-43
2024/02/21 12:59:33;;;;;;;0.00;0.00;;;22.00;41.10;;;;;;5013171;28;20267;-44
2024/02/21 13:02:06;;;;;;;0.00;0.00;;;22.00;41.10;;;;;;5012414;28;20566;-40
2024/02/21 13:04:40;;;;;;;0.03;0.03;;;21.90;41.10;;;;;;5013119;28;20598;-44
2024/02/21 13:07:11;;;;;;;0.10;0.10;;;21.90;41.10;;;;;;5009595;28;20194;-41
2024/02/21 13:09:41;;;;;;;0.10;0.10;;;21.90;41.10;;;;;;4993195;28;20241;-40